sensor_id;sensor_type;location;lat;lon;timestamp;pressure;altitude;pressure_sealevel;temperature;humidity
46642;BME280;32370;41.864;-88.124;2023-01-25T00:02:06;99462.86;;;-1.38;88.37
46642;BME280;32370;41.864;-88.124;2023-01-25T00:04:34;99455.71;;;-0.76;87.24
46642;BME280;32370;41.864;-88.124;2023-01-25T00:07:03;99441.09;;;-1.11;86.48
46642;BME280;32370;41.864;-88.124;2023-01-25T00:09:31;99419.22;;;-1.34;86.42
46642;BME280;32370;41.864;-88.124;2023-01-25T00:11:59;99409.75;;;-1.57;87.35
46642;BME280;32370;41.864;-88.124;2023-01-25T00:14:27;99407.38;;;-1.50;88.85
46642;BME280;32370;41.864;-88.124;2023-01-25T00:16:55;99412.84;;;-1.50;89.67
46642;BME280;32370;41.864;-88.124;2023-01-25T00:19:23;99415.07;;;-1.45;89.58
46642;BME280;32370;41.864;-88.124;2023-01-25T00:21:51;99413.91;;;-1.42;88.92
46642;BME280;32370;41.864;-88.124;2023-01-25T00:24:19;99411.29;;;-1.33;88.44
46642;BME280;32370;41.864;-88.124;2023-01-25T00:26:46;99409.81;;;-1.30;88.34
46642;BME280;32370;41.864;-88.124;2023-01-25T00:29:15;99407.34;;;-1.12;87.77
46642;BME280;32370;41.864;-88.124;2023-01-25T00:31:53;99405.62;;;-1.77;88.44
46642;BME280;32370;41.864;-88.124;2023-01-25T00:34:44;99408.03;;;-0.58;88.06
46642;BME280;32370;41.864;-88.124;2023-01-25T00:37:19;99399.44;;;-0.60;85.73
46642;BME280;32370;41.864;-88.124;2023-01-25T00:39:50;99394.13;;;-0.30;84.32
46642;BME280;32370;41.864;-88.124;2023-01-25T00:42:19;99387.77;;;-0.77;84.66
46642;BME280;32370;41.864;-88.124;2023-01-25T00:44:48;99381.77;;;-0.60;84.73
46642;BME280;32370;41.864;-88.124;2023-01-25T00:47:16;99366.82;;;0.21;82.35
46642;BME280;32370;41.864;-88.124;2023-01-25T00:49:45;99353.17;;;0.18;81.53
46642;BME280;32370;41.864;-88.124;2023-01-25T00:52:13;99349.03;;;-0.28;82.06
46642;BME280;32370;41.864;-88.124;2023-01-25T00:54:41;99351.09;;;0.01;81.29
46642;BME280;32370;41.864;-88.124;2023-01-25T00:57:09;99349.84;;;-0.49;82.72
46642;BME280;32370;41.864;-88.124;2023-01-25T00:59:37;99356.80;;;-0.33;82.25
46642;BME280;32370;41.864;-88.124;2023-01-25T01:02:05;99350.15;;;-0.24;82.15
46642;BME280;32370;41.864;-88.124;2023-01-25T01:04:34;99354.07;;;-0.50;83.05
46642;BME280;32370;41.864;-88.124;2023-01-25T01:07:02;99356.77;;;-0.32;82.31
46642;BME280;32370;41.864;-88.124;2023-01-25T01:09:31;99358.55;;;-0.14;81.97
46642;BME280;32370;41.864;-88.124;2023-01-25T01:11:59;99362.45;;;-0.46;82.75
46642;BME280;32370;41.864;-88.124;2023-01-25T01:14:27;99354.72;;;-0.83;83.70
46642;BME280;32370;41.864;-88.124;2023-01-25T01:16:55;99348.07;;;-0.82;84.43
46642;BME280;32370;41.864;-88.124;2023-01-25T01:19:23;99343.49;;;-0.83;84.49
46642;BME280;32370;41.864;-88.124;2023-01-25T01:21:51;99334.55;;;-0.85;84.10
46642;BME280;32370;41.864;-88.124;2023-01-25T01:24:19;99331.80;;;-1.37;86.51
46642;BME280;32370;41.864;-88.124;2023-01-25T01:26:47;99319.37;;;-1.32;86.73
46642;BME280;32370;41.864;-88.124;2023-01-25T01:29:15;99302.02;;;-0.93;86.31
46642;BME280;32370;41.864;-88.124;2023-01-25T01:31:43;99294.90;;;-0.70;84.91
46642;BME280;32370;41.864;-88.124;2023-01-25T01:34:12;99301.63;;;-0.86;84.63
46642;BME280;32370;41.864;-88.124;2023-01-25T01:36:41;99304.31;;;-0.73;84.82
46642;BME280;32370;41.864;-88.124;2023-01-25T01:39:09;99304.49;;;-0.72;84.39
46642;BME280;32370;41.864;-88.124;2023-01-25T01:41:38;99309.13;;;-0.17;83.13
46642;BME280;32370;41.864;-88.124;2023-01-25T01:44:15;99311.49;;;0.32;81.94
46642;BME280;32370;41.864;-88.124;2023-01-25T01:46:46;99311.15;;;0.00;80.87
46642;BME280;32370;41.864;-88.124;2023-01-25T01:49:19;99313.31;;;0.35;80.76
46642;BME280;32370;41.864;-88.124;2023-01-25T01:51:52;99314.68;;;0.28;80.87
46642;BME280;32370;41.864;-88.124;2023-01-25T01:54:26;99310.01;;;-0.35;81.10
46642;BME280;32370;41.864;-88.124;2023-01-25T01:57:01;99312.03;;;-0.29;81.59
46642;BME280;32370;41.864;-88.124;2023-01-25T01:59:34;99305.54;;;-0.36;81.70
46642;BME280;32370;41.864;-88.124;2023-01-25T02:02:04;99303.22;;;-0.12;81.54
46642;BME280;32370;41.864;-88.124;2023-01-25T02:04:33;99299.40;;;0.14;81.06
46642;BME280;32370;41.864;-88.124;2023-01-25T02:07:06;99297.10;;;-0.06;81.42
46642;BME280;32370;41.864;-88.124;2023-01-25T02:09:37;99299.63;;;0.49;81.04
46642;BME280;32370;41.864;-88.124;2023-01-25T02:12:05;99300.67;;;0.45;80.44
46642;BME280;32370;41.864;-88.124;2023-01-25T02:14:34;99299.06;;;0.62;79.97
46642;BME280;32370;41.864;-88.124;2023-01-25T02:17:04;99301.62;;;0.78;79.18
46642;BME280;32370;41.864;-88.124;2023-01-25T02:19:39;99305.19;;;0.62;79.03
46642;BME280;32370;41.864;-88.124;2023-01-25T02:22:12;99305.85;;;0.69;79.23
46642;BME280;32370;41.864;-88.124;2023-01-25T02:24:48;99304.11;;;0.44;79.74
46642;BME280;32370;41.864;-88.124;2023-01-25T02:27:18;99301.30;;;0.66;79.45
46642;BME280;32370;41.864;-88.124;2023-01-25T02:29:46;99301.41;;;-0.11;80.20
46642;BME280;32370;41.864;-88.124;2023-01-25T02:32:15;99301.38;;;0.63;79.60
46642;BME280;32370;41.864;-88.124;2023-01-25T02:34:43;99303.98;;;0.99;79.15
46642;BME280;32370;41.864;-88.124;2023-01-25T02:37:13;99299.10;;;-0.03;81.82
46642;BME280;32370;41.864;-88.124;2023-01-25T02:39:41;99303.26;;;-0.30;83.59
46642;BME280;32370;41.864;-88.124;2023-01-25T02:42:09;99299.75;;;-0.45;84.11
46642;BME280;32370;41.864;-88.124;2023-01-25T02:44:39;99298.48;;;0.37;83.32
46642;BME280;32370;41.864;-88.124;2023-01-25T02:47:08;99297.85;;;0.23;83.62
46642;BME280;32370;41.864;-88.124;2023-01-25T02:49:36;99295.18;;;-0.29;85.30
46642;BME280;32370;41.864;-88.124;2023-01-25T02:52:04;99293.48;;;-0.22;85.44
46642;BME280;32370;41.864;-88.124;2023-01-25T02:54:32;99284.28;;;-0.55;85.97
46642;BME280;32370;41.864;-88.124;2023-01-25T02:57:00;99276.63;;;-0.84;87.26
46642;BME280;32370;41.864;-88.124;2023-01-25T02:59:28;99270.98;;;-0.89;87.82
46642;BME280;32370;41.864;-88.124;2023-01-25T03:01:56;99255.68;;;-0.84;88.11
46642;BME280;32370;41.864;-88.124;2023-01-25T03:04:24;99236.17;;;-0.99;88.46
46642;BME280;32370;41.864;-88.124;2023-01-25T03:06:52;99221.87;;;-0.87;88.37
46642;BME280;32370;41.864;-88.124;2023-01-25T03:09:20;99215.48;;;-1.18;89.64
46642;BME280;32370;41.864;-88.124;2023-01-25T03:11:48;99209.28;;;-0.71;89.09
46642;BME280;32370;41.864;-88.124;2023-01-25T03:14:16;99199.16;;;-1.14;89.65
46642;BME280;32370;41.864;-88.124;2023-01-25T03:16:44;99191.24;;;-0.85;89.10
46642;BME280;32370;41.864;-88.124;2023-01-25T03:19:12;99195.87;;;-0.35;87.82
46642;BME280;32370;41.864;-88.124;2023-01-25T03:21:40;99190.33;;;-0.36;87.36
46642;BME280;32370;41.864;-88.124;2023-01-25T03:24:09;99180.59;;;-0.32;87.16
46642;BME280;32370;41.864;-88.124;2023-01-25T03:26:37;99174.74;;;-0.31;87.15
46642;BME280;32370;41.864;-88.124;2023-01-25T03:29:05;99164.31;;;-0.48;87.41
46642;BME280;32370;41.864;-88.124;2023-01-25T03:31:33;99154.01;;;-0.77;88.17
46642;BME280;32370;41.864;-88.124;2023-01-25T03:34:01;99142.05;;;-1.26;88.97
46642;BME280;32370;41.864;-88.124;2023-01-25T03:36:29;99135.71;;;-0.80;88.52
46642;BME280;32370;41.864;-88.124;2023-01-25T03:38:56;99132.46;;;-1.26;89.54
46642;BME280;32370;41.864;-88.124;2023-01-25T03:41:25;99129.89;;;-1.06;89.38
46642;BME280;32370;41.864;-88.124;2023-01-25T03:43:52;99130.27;;;-1.11;89.46
46642;BME280;32370;41.864;-88.124;2023-01-25T03:46:22;99129.59;;;-0.87;88.86
46642;BME280;32370;41.864;-88.124;2023-01-25T03:48:50;99131.57;;;-0.81;88.69
46642;BME280;32370;41.864;-88.124;2023-01-25T03:51:18;99131.86;;;-0.74;88.84
46642;BME280;32370;41.864;-88.124;2023-01-25T03:53:46;99129.13;;;-0.58;88.51
46642;BME280;32370;41.864;-88.124;2023-01-25T03:56:14;99125.22;;;-0.46;88.34
46642;BME280;32370;41.864;-88.124;2023-01-25T03:58:42;99121.77;;;-0.36;87.65
46642;BME280;32370;41.864;-88.124;2023-01-25T04:01:10;99123.62;;;-0.66;88.06
46642;BME280;32370;41.864;-88.124;2023-01-25T04:03:38;99121.14;;;-0.92;88.64
46642;BME280;32370;41.864;-88.124;2023-01-25T04:06:06;99128.94;;;-0.92;88.57
46642;BME280;32370;41.864;-88.124;2023-01-25T04:08:35;99127.53;;;-0.77;88.23
46642;BME280;32370;41.864;-88.124;2023-01-25T04:11:06;99127.50;;;-0.65;88.14
46642;BME280;32370;41.864;-88.124;2023-01-25T04:13:35;99122.97;;;-0.61;87.69
46642;BME280;32370;41.864;-88.124;2023-01-25T04:16:03;99123.28;;;-0.52;87.21
46642;BME280;32370;41.864;-88.124;2023-01-25T04:18:31;99119.14;;;-0.73;87.80
46642;BME280;32370;41.864;-88.124;2023-01-25T04:20:59;99112.34;;;-0.34;87.10
46642;BME280;32370;41.864;-88.124;2023-01-25T04:23:27;99123.66;;;-0.35;86.87
46642;BME280;32370;41.864;-88.124;2023-01-25T04:25:56;99128.55;;;-0.67;87.52
46642;BME280;32370;41.864;-88.124;2023-01-25T04:28:25;99124.75;;;-0.33;86.63
46642;BME280;32370;41.864;-88.124;2023-01-25T04:30:54;99119.92;;;-0.76;87.49
46642;BME280;32370;41.864;-88.124;2023-01-25T04:33:22;99117.67;;;-1.09;88.49
46642;BME280;32370;41.864;-88.124;2023-01-25T04:35:51;99119.08;;;-0.53;87.67
46642;BME280;32370;41.864;-88.124;2023-01-25T04:38:19;99119.49;;;-1.32;89.00
46642;BME280;32370;41.864;-88.124;2023-01-25T04:40:47;99121.82;;;-1.18;89.75
46642;BME280;32370;41.864;-88.124;2023-01-25T04:43:16;99120.15;;;-0.94;89.04
46642;BME280;32370;41.864;-88.124;2023-01-25T04:45:44;99121.66;;;-0.69;87.89
46642;BME280;32370;41.864;-88.124;2023-01-25T04:48:13;99123.16;;;-0.84;88.19
46642;BME280;32370;41.864;-88.124;2023-01-25T04:50:42;99120.21;;;-0.98;88.64
46642;BME280;32370;41.864;-88.124;2023-01-25T04:53:11;99122.11;;;-0.97;89.10
46642;BME280;32370;41.864;-88.124;2023-01-25T04:55:39;99125.17;;;-1.07;89.18
46642;BME280;32370;41.864;-88.124;2023-01-25T04:58:07;99126.56;;;-0.87;89.00
46642;BME280;32370;41.864;-88.124;2023-01-25T05:00:35;99123.76;;;-1.03;88.89
46642;BME280;32370;41.864;-88.124;2023-01-25T05:03:03;99112.38;;;-0.97;89.26
46642;BME280;32370;41.864;-88.124;2023-01-25T05:05:31;99109.25;;;-0.89;89.43
46642;BME280;32370;41.864;-88.124;2023-01-25T05:07:59;99103.05;;;-1.62;90.60
46642;BME280;32370;41.864;-88.124;2023-01-25T05:10:27;99100.19;;;-1.78;91.67
46642;BME280;32370;41.864;-88.124;2023-01-25T05:12:55;99102.44;;;-1.32;91.05
46642;BME280;32370;41.864;-88.124;2023-01-25T05:15:23;99102.61;;;-1.12;90.87
46642;BME280;32370;41.864;-88.124;2023-01-25T05:17:51;99099.67;;;-1.26;90.54
46642;BME280;32370;41.864;-88.124;2023-01-25T05:20:19;99099.34;;;-1.12;90.17
46642;BME280;32370;41.864;-88.124;2023-01-25T05:22:47;99091.16;;;-1.28;90.70
46642;BME280;32370;41.864;-88.124;2023-01-25T05:25:15;99091.87;;;-1.13;90.25
46642;BME280;32370;41.864;-88.124;2023-01-25T05:27:44;99090.19;;;-1.04;90.37
46642;BME280;32370;41.864;-88.124;2023-01-25T05:30:12;99083.79;;;-1.18;89.92
46642;BME280;32370;41.864;-88.124;2023-01-25T05:32:39;99078.45;;;-0.92;90.11
46642;BME280;32370;41.864;-88.124;2023-01-25T05:35:08;99077.82;;;-1.36;90.60
46642;BME280;32370;41.864;-88.124;2023-01-25T05:37:36;99077.26;;;-1.14;90.38
46642;BME280;32370;41.864;-88.124;2023-01-25T05:40:04;99071.93;;;-1.59;91.00
46642;BME280;32370;41.864;-88.124;2023-01-25T05:42:32;99063.38;;;-1.78;92.04
46642;BME280;32370;41.864;-88.124;2023-01-25T05:45:00;99060.06;;;-1.56;92.60
46642;BME280;32370;41.864;-88.124;2023-01-25T05:47:28;99054.93;;;-1.46;93.10
46642;BME280;32370;41.864;-88.124;2023-01-25T05:49:57;99049.51;;;-1.64;93.30
46642;BME280;32370;41.864;-88.124;2023-01-25T05:52:25;99041.17;;;-1.79;93.35
46642;BME280;32370;41.864;-88.124;2023-01-25T05:54:53;99040.59;;;-1.87;93.52
46642;BME280;32370;41.864;-88.124;2023-01-25T05:57:21;99037.53;;;-1.24;92.76
46642;BME280;32370;41.864;-88.124;2023-01-25T05:59:49;99029.63;;;-1.29;92.37
46642;BME280;32370;41.864;-88.124;2023-01-25T06:02:17;99024.68;;;-1.50;93.14
46642;BME280;32370;41.864;-88.124;2023-01-25T06:04:45;99019.22;;;-1.63;93.78
46642;BME280;32370;41.864;-88.124;2023-01-25T06:07:13;99014.21;;;-1.78;93.49
46642;BME280;32370;41.864;-88.124;2023-01-25T06:09:41;99011.00;;;-1.59;92.95
46642;BME280;32370;41.864;-88.124;2023-01-25T06:12:09;99004.61;;;-1.74;93.04
46642;BME280;32370;41.864;-88.124;2023-01-25T06:14:37;99000.30;;;-1.93;92.90
46642;BME280;32370;41.864;-88.124;2023-01-25T06:17:05;98998.05;;;-1.56;93.15
46642;BME280;32370;41.864;-88.124;2023-01-25T06:19:33;98989.30;;;-1.72;94.11
46642;BME280;32370;41.864;-88.124;2023-01-25T06:22:01;98981.31;;;-1.94;94.01
46642;BME280;32370;41.864;-88.124;2023-01-25T06:24:29;98970.34;;;-1.86;93.78
46642;BME280;32370;41.864;-88.124;2023-01-25T06:26:56;98965.95;;;-1.71;93.42
46642;BME280;32370;41.864;-88.124;2023-01-25T06:29:25;98968.85;;;-1.80;93.24
46642;BME280;32370;41.864;-88.124;2023-01-25T06:31:52;98960.17;;;-1.16;92.61
46642;BME280;32370;41.864;-88.124;2023-01-25T06:34:21;98953.93;;;-0.75;91.99
46642;BME280;32370;41.864;-88.124;2023-01-25T06:36:49;98948.19;;;-1.51;91.88
46642;BME280;32370;41.864;-88.124;2023-01-25T06:39:16;98940.32;;;-1.43;91.68
46642;BME280;32370;41.864;-88.124;2023-01-25T06:41:44;98933.17;;;-1.34;91.75
46642;BME280;32370;41.864;-88.124;2023-01-25T06:44:13;98930.20;;;-1.12;90.56
46642;BME280;32370;41.864;-88.124;2023-01-25T06:46:41;98927.20;;;-0.85;89.49
46642;BME280;32370;41.864;-88.124;2023-01-25T06:49:10;98922.26;;;-1.41;89.84
46642;BME280;32370;41.864;-88.124;2023-01-25T06:51:38;98915.34;;;-1.05;90.09
46642;BME280;32370;41.864;-88.124;2023-01-25T06:54:07;98916.00;;;-1.01;89.62
46642;BME280;32370;41.864;-88.124;2023-01-25T06:56:35;98907.46;;;-1.40;90.60
46642;BME280;32370;41.864;-88.124;2023-01-25T06:59:03;98899.27;;;-1.76;91.66
46642;BME280;32370;41.864;-88.124;2023-01-25T07:01:31;98897.98;;;-0.89;91.14
46642;BME280;32370;41.864;-88.124;2023-01-25T07:03:59;98892.91;;;-1.10;90.24
46642;BME280;32370;41.864;-88.124;2023-01-25T07:06:31;98893.18;;;-0.58;89.08
46642;BME280;32370;41.864;-88.124;2023-01-25T07:09:02;98891.52;;;-0.97;89.62
46642;BME280;32370;41.864;-88.124;2023-01-25T07:11:30;98889.29;;;-1.20;90.74
46642;BME280;32370;41.864;-88.124;2023-01-25T07:13:58;98886.91;;;-1.09;90.99
46642;BME280;32370;41.864;-88.124;2023-01-25T07:16:27;98883.40;;;-0.87;91.65
46642;BME280;32370;41.864;-88.124;2023-01-25T07:18:55;98886.12;;;-1.01;90.52
46642;BME280;32370;41.864;-88.124;2023-01-25T07:21:22;98884.92;;;-1.45;92.36
46642;BME280;32370;41.864;-88.124;2023-01-25T07:23:51;98881.62;;;-1.48;93.23
46642;BME280;32370;41.864;-88.124;2023-01-25T07:26:20;98873.86;;;-1.59;93.60
46642;BME280;32370;41.864;-88.124;2023-01-25T07:28:49;98867.44;;;-1.63;94.35
46642;BME280;32370;41.864;-88.124;2023-01-25T07:31:18;98861.39;;;-1.62;95.75
46642;BME280;32370;41.864;-88.124;2023-01-25T07:33:48;98857.40;;;-2.13;97.27
46642;BME280;32370;41.864;-88.124;2023-01-25T07:36:16;98854.61;;;-1.75;98.25
46642;BME280;32370;41.864;-88.124;2023-01-25T07:38:45;98848.72;;;-2.12;98.16
46642;BME280;32370;41.864;-88.124;2023-01-25T07:41:13;98840.47;;;-1.18;97.26
46642;BME280;32370;41.864;-88.124;2023-01-25T07:43:41;98835.91;;;-1.69;97.89
46642;BME280;32370;41.864;-88.124;2023-01-25T07:46:11;98823.65;;;-1.44;97.79
46642;BME280;32370;41.864;-88.124;2023-01-25T07:48:44;98814.41;;;-1.34;98.13
46642;BME280;32370;41.864;-88.124;2023-01-25T07:51:12;98808.77;;;-1.75;99.33
46642;BME280;32370;41.864;-88.124;2023-01-25T07:53:43;98806.31;;;-1.20;97.87
46642;BME280;32370;41.864;-88.124;2023-01-25T07:56:11;98806.26;;;-1.46;97.48
46642;BME280;32370;41.864;-88.124;2023-01-25T07:58:39;98801.54;;;-1.13;97.03
46642;BME280;32370;41.864;-88.124;2023-01-25T08:01:09;98795.03;;;-1.15;96.33
46642;BME280;32370;41.864;-88.124;2023-01-25T08:03:37;98792.49;;;-1.30;96.53
46642;BME280;32370;41.864;-88.124;2023-01-25T08:06:06;98788.18;;;-1.52;97.14
46642;BME280;32370;41.864;-88.124;2023-01-25T08:08:35;98782.49;;;-1.59;97.62
46642;BME280;32370;41.864;-88.124;2023-01-25T08:11:08;98774.82;;;-1.11;96.85
46642;BME280;32370;41.864;-88.124;2023-01-25T08:13:37;98769.42;;;-0.52;95.27
46642;BME280;32370;41.864;-88.124;2023-01-25T08:16:05;98764.86;;;-0.18;94.07
46642;BME280;32370;41.864;-88.124;2023-01-25T08:18:33;98763.09;;;-0.73;94.41
46642;BME280;32370;41.864;-88.124;2023-01-25T08:21:01;98755.41;;;-0.89;95.32
46642;BME280;32370;41.864;-88.124;2023-01-25T08:23:30;98747.46;;;-0.75;95.17
46642;BME280;32370;41.864;-88.124;2023-01-25T08:26:01;98741.94;;;-0.80;94.53
46642;BME280;32370;41.864;-88.124;2023-01-25T08:28:29;98741.29;;;-1.33;96.24
46642;BME280;32370;41.864;-88.124;2023-01-25T08:31:05;98733.44;;;-1.40;97.67
46642;BME280;32370;41.864;-88.124;2023-01-25T08:33:33;98738.59;;;-0.92;97.31
46642;BME280;32370;41.864;-88.124;2023-01-25T08:36:02;98733.34;;;-1.38;97.78
46642;BME280;32370;41.864;-88.124;2023-01-25T08:38:31;98734.76;;;-1.73;99.69
46642;BME280;32370;41.864;-88.124;2023-01-25T08:41:04;98732.74;;;-2.07;99.66
46642;BME280;32370;41.864;-88.124;2023-01-25T08:43:33;98726.69;;;-1.67;99.69
46642;BME280;32370;41.864;-88.124;2023-01-25T08:46:01;98725.19;;;-1.58;99.97
46642;BME280;32370;41.864;-88.124;2023-01-25T08:48:30;98726.08;;;-1.21;99.80
46642;BME280;32370;41.864;-88.124;2023-01-25T08:50:58;98729.82;;;-1.78;100.00
46642;BME280;32370;41.864;-88.124;2023-01-25T08:53:28;98727.25;;;-1.71;100.00
46642;BME280;32370;41.864;-88.124;2023-01-25T08:56:03;98723.16;;;-1.63;100.00
46642;BME280;32370;41.864;-88.124;2023-01-25T08:58:31;98718.26;;;-1.49;100.00
46642;BME280;32370;41.864;-88.124;2023-01-25T09:01:02;98710.42;;;-0.99;99.58
46642;BME280;32370;41.864;-88.124;2023-01-25T09:03:30;98709.45;;;-1.41;98.72
46642;BME280;32370;41.864;-88.124;2023-01-25T09:05:58;98701.85;;;-1.48;98.87
46642;BME280;32370;41.864;-88.124;2023-01-25T09:08:26;98700.77;;;-1.21;99.12
46642;BME280;32370;41.864;-88.124;2023-01-25T09:10:54;98699.80;;;-1.14;99.11
46642;BME280;32370;41.864;-88.124;2023-01-25T09:13:22;98695.63;;;-1.26;99.19
46642;BME280;32370;41.864;-88.124;2023-01-25T09:15:50;98691.24;;;-0.77;97.67
46642;BME280;32370;41.864;-88.124;2023-01-25T09:18:18;98688.66;;;-1.19;97.71
46642;BME280;32370;41.864;-88.124;2023-01-25T09:20:46;98674.74;;;-0.50;96.37
46642;BME280;32370;41.864;-88.124;2023-01-25T09:23:14;98666.05;;;-0.39;95.47
46642;BME280;32370;41.864;-88.124;2023-01-25T09:25:42;98662.09;;;-0.34;95.34
46642;BME280;32370;41.864;-88.124;2023-01-25T09:28:10;98654.03;;;-0.91;96.52
46642;BME280;32370;41.864;-88.124;2023-01-25T09:30:38;98654.03;;;-1.16;97.63
46642;BME280;32370;41.864;-88.124;2023-01-25T09:33:06;98646.90;;;-1.37;98.12
46642;BME280;32370;41.864;-88.124;2023-01-25T09:35:34;98641.00;;;-1.30;98.47
46642;BME280;32370;41.864;-88.124;2023-01-25T09:38:02;98631.55;;;-1.17;98.73
46642;BME280;32370;41.864;-88.124;2023-01-25T09:40:37;98627.10;;;-1.31;98.67
46642;BME280;32370;41.864;-88.124;2023-01-25T09:43:11;98621.20;;;-0.93;98.53
46642;BME280;32370;41.864;-88.124;2023-01-25T09:45:44;98614.26;;;-1.27;98.71
46642;BME280;32370;41.864;-88.124;2023-01-25T09:48:18;98610.05;;;-0.70;97.84
46642;BME280;32370;41.864;-88.124;2023-01-25T09:51:03;98603.13;;;-1.07;97.97
46642;BME280;32370;41.864;-88.124;2023-01-25T09:53:38;98591.94;;;-0.55;96.85
46642;BME280;32370;41.864;-88.124;2023-01-25T09:56:12;98589.60;;;-0.89;97.56
46642;BME280;32370;41.864;-88.124;2023-01-25T09:58:44;98589.71;;;-0.80;97.80
46642;BME280;32370;41.864;-88.124;2023-01-25T10:01:23;98585.79;;;-1.26;98.61
46642;BME280;32370;41.864;-88.124;2023-01-25T10:03:55;98583.18;;;-1.37;98.89
46642;BME280;32370;41.864;-88.124;2023-01-25T10:06:34;98577.94;;;-0.53;97.48
46642;BME280;32370;41.864;-88.124;2023-01-25T10:09:12;98569.89;;;-0.19;95.74
46642;BME280;32370;41.864;-88.124;2023-01-25T10:11:44;98567.03;;;-0.55;96.27
46642;BME280;32370;41.864;-88.124;2023-01-25T10:14:14;98562.23;;;-0.70;96.41
46642;BME280;32370;41.864;-88.124;2023-01-25T10:16:53;98558.73;;;-0.52;95.52
46642;BME280;32370;41.864;-88.124;2023-01-25T10:19:32;98554.61;;;-0.59;96.28
46642;BME280;32370;41.864;-88.124;2023-01-25T10:22:12;98549.75;;;-1.25;97.71
46642;BME280;32370;41.864;-88.124;2023-01-25T10:25:06;98541.70;;;-1.30;99.03
46642;BME280;32370;41.864;-88.124;2023-01-25T10:27:40;98533.94;;;-1.23;99.09
46642;BME280;32370;41.864;-88.124;2023-01-25T10:30:24;98527.69;;;-1.18;98.92
46642;BME280;32370;41.864;-88.124;2023-01-25T10:32:56;98524.32;;;-0.97;99.07
46642;BME280;32370;41.864;-88.124;2023-01-25T10:35:28;98517.96;;;-0.80;97.95
46642;BME280;32370;41.864;-88.124;2023-01-25T10:38:02;98506.71;;;-0.52;96.83
46642;BME280;32370;41.864;-88.124;2023-01-25T10:40:37;98502.58;;;-1.00;97.68
46642;BME280;32370;41.864;-88.124;2023-01-25T10:43:13;98503.67;;;-0.96;98.18
46642;BME280;32370;41.864;-88.124;2023-01-25T10:45:42;98505.08;;;-1.13;98.42
46642;BME280;32370;41.864;-88.124;2023-01-25T10:48:14;98501.40;;;-0.88;98.26
46642;BME280;32370;41.864;-88.124;2023-01-25T10:50:50;98496.99;;;-1.01;98.50
46642;BME280;32370;41.864;-88.124;2023-01-25T10:53:25;98492.15;;;-0.58;97.75
46642;BME280;32370;41.864;-88.124;2023-01-25T10:55:59;98486.11;;;-0.49;96.87
46642;BME280;32370;41.864;-88.124;2023-01-25T10:58:34;98485.67;;;-0.66;97.41
46642;BME280;32370;41.864;-88.124;2023-01-25T11:01:04;98486.74;;;-0.52;97.38
46642;BME280;32370;41.864;-88.124;2023-01-25T11:03:36;98483.67;;;-1.26;98.73
46642;BME280;32370;41.864;-88.124;2023-01-25T11:06:05;98469.45;;;-1.05;99.15
46642;BME280;32370;41.864;-88.124;2023-01-25T11:08:36;98458.33;;;-0.70;98.41
46642;BME280;32370;41.864;-88.124;2023-01-25T11:11:35;98451.05;;;-0.43;97.74
46642;BME280;32370;41.864;-88.124;2023-01-25T11:14:15;98450.08;;;-0.36;96.89
46642;BME280;32370;41.864;-88.124;2023-01-25T11:16:45;98444.95;;;-0.62;97.13
46642;BME280;32370;41.864;-88.124;2023-01-25T11:19:26;98436.06;;;-0.84;97.31
46642;BME280;32370;41.864;-88.124;2023-01-25T11:21:56;98431.14;;;-1.30;99.52
46642;BME280;32370;41.864;-88.124;2023-01-25T11:24:26;98425.93;;;-1.33;99.63
46642;BME280;32370;41.864;-88.124;2023-01-25T11:27:13;98421.19;;;-1.12;99.73
46642;BME280;32370;41.864;-88.124;2023-01-25T11:29:43;98410.73;;;-1.26;99.53
46642;BME280;32370;41.864;-88.124;2023-01-25T11:32:16;98404.31;;;-0.87;99.85
46642;BME280;32370;41.864;-88.124;2023-01-25T11:34:44;98390.53;;;-1.34;100.00
46642;BME280;32370;41.864;-88.124;2023-01-25T11:37:24;98384.90;;;-1.08;100.00
46642;BME280;32370;41.864;-88.124;2023-01-25T11:40:00;98374.43;;;-0.94;99.55
46642;BME280;32370;41.864;-88.124;2023-01-25T11:42:38;98364.85;;;-0.96;100.00
46642;BME280;32370;41.864;-88.124;2023-01-25T11:45:21;98354.53;;;-1.08;100.00
46642;BME280;32370;41.864;-88.124;2023-01-25T11:48:08;98345.53;;;-0.68;99.90
46642;BME280;32370;41.864;-88.124;2023-01-25T11:50:43;98336.55;;;-0.92;100.00
46642;BME280;32370;41.864;-88.124;2023-01-25T11:53:26;98327.54;;;-0.91;100.00
46642;BME280;32370;41.864;-88.124;2023-01-25T11:56:03;98325.95;;;-1.21;100.00
46642;BME280;32370;41.864;-88.124;2023-01-25T11:58:53;98326.52;;;-0.89;100.00
46642;BME280;32370;41.864;-88.124;2023-01-25T12:01:33;98319.22;;;-0.81;100.00
46642;BME280;32370;41.864;-88.124;2023-01-25T12:04:24;98316.74;;;-1.12;100.00
46642;BME280;32370;41.864;-88.124;2023-01-25T12:07:00;98311.15;;;-0.99;100.00
46642;BME280;32370;41.864;-88.124;2023-01-25T12:09:42;98310.49;;;-0.87;100.00
46642;BME280;32370;41.864;-88.124;2023-01-25T12:12:24;98311.29;;;-1.20;100.00
46642;BME280;32370;41.864;-88.124;2023-01-25T12:15:11;98315.00;;;-0.77;100.00
46642;BME280;32370;41.864;-88.124;2023-01-25T12:17:57;98320.70;;;-1.28;100.00
46642;BME280;32370;41.864;-88.124;2023-01-25T12:20:39;98312.68;;;-1.24;100.00
46642;BME280;32370;41.864;-88.124;2023-01-25T12:23:25;98304.31;;;-1.11;100.00
46642;BME280;32370;41.864;-88.124;2023-01-25T12:26:11;98300.57;;;-1.19;100.00
46642;BME280;32370;41.864;-88.124;2023-01-25T12:28:45;98300.89;;;-0.94;100.00
46642;BME280;32370;41.864;-88.124;2023-01-25T12:31:19;98300.41;;;-1.09;100.00
46642;BME280;32370;41.864;-88.124;2023-01-25T12:33:54;98301.53;;;-0.81;100.00
46642;BME280;32370;41.864;-88.124;2023-01-25T12:36:27;98297.03;;;-1.63;100.00
46642;BME280;32370;41.864;-88.124;2023-01-25T12:39:02;98296.76;;;-1.36;100.00
46642;BME280;32370;41.864;-88.124;2023-01-25T12:41:37;98296.37;;;-1.13;100.00
46642;BME280;32370;41.864;-88.124;2023-01-25T12:44:13;98289.08;;;-1.39;100.00
46642;BME280;32370;41.864;-88.124;2023-01-25T12:46:51;98283.64;;;-1.20;100.00
46642;BME280;32370;41.864;-88.124;2023-01-25T12:49:27;98278.02;;;-1.03;100.00
46642;BME280;32370;41.864;-88.124;2023-01-25T12:52:00;98275.45;;;-1.16;100.00
46642;BME280;32370;41.864;-88.124;2023-01-25T12:54:33;98268.37;;;-1.30;100.00
46642;BME280;32370;41.864;-88.124;2023-01-25T12:57:14;98265.97;;;-1.25;100.00
46642;BME280;32370;41.864;-88.124;2023-01-25T12:59:51;98265.21;;;-1.34;100.00